createdAt,value
2018-05-23T00:00:35.447Z,99.53
2018-05-23T00:01:35.677Z,99.53
2018-05-23T00:02:35.907Z,99.15
2018-05-23T00:03:36.141Z,99.53
2018-05-23T00:04:36.377Z,99.15
2018-05-23T00:05:36.593Z,99.43
2018-05-23T00:06:36.827Z,98.76
2018-05-23T00:07:37.052Z,99.24
2018-05-23T00:08:37.281Z,99.43
2018-05-23T00:09:37.513Z,99.72
2018-05-23T00:10:37.741Z,99.43
2018-05-23T00:11:37.963Z,99.63
2018-05-23T00:12:38.204Z,99.91
2018-05-23T00:13:38.438Z,99.99
2018-05-23T00:14:38.669Z,99.99
2018-05-23T00:15:38.900Z,99.99
2018-05-23T00:16:39.118Z,99.99
2018-05-23T00:17:39.347Z,99.99
2018-05-23T00:18:39.576Z,99.99
2018-05-23T00:19:39.837Z,99.99
2018-05-23T00:20:40.024Z,99.99
2018-05-23T00:21:40.246Z,99.99
2018-05-23T00:22:40.476Z,99.99
2018-05-23T00:23:40.709Z,99.99
2018-05-23T00:24:40.940Z,99.99
2018-05-23T00:25:41.179Z,99.99
2018-05-23T00:26:41.407Z,99.99
2018-05-23T00:27:41.629Z,99.99
2018-05-23T00:28:41.855Z,99.99
2018-05-23T00:29:42.086Z,99.99
2018-05-23T00:30:42.317Z,99.99
2018-05-23T00:31:42.547Z,99.99
2018-05-23T00:32:42.772Z,99.99
2018-05-23T00:33:43.002Z,99.99
2018-05-23T00:34:43.229Z,99.99
2018-05-23T00:35:43.468Z,99.99
2018-05-23T00:36:43.700Z,99.99
2018-05-23T00:37:43.925Z,99.99
2018-05-23T00:38:44.153Z,99.99
2018-05-23T00:39:44.385Z,99.99
2018-05-23T00:40:44.618Z,99.99
2018-05-23T00:41:44.847Z,99.99
2018-05-23T00:42:45.076Z,99.99
2018-05-23T00:43:45.305Z,99.99
2018-05-23T00:44:45.534Z,99.99
2018-05-23T00:45:45.769Z,99.99
2018-05-23T00:46:45.994Z,99.91
2018-05-23T00:47:46.222Z,99.91
2018-05-23T00:48:46.455Z,99.99
2018-05-23T00:49:46.686Z,99.99
2018-05-23T00:50:46.919Z,99.99
2018-05-23T00:51:47.142Z,99.99
2018-05-23T00:52:47.373Z,99.99
2018-05-23T00:53:47.601Z,99.99
2018-05-23T00:54:47.825Z,99.99
2018-05-23T00:55:48.057Z,99.91
2018-05-23T00:56:48.286Z,99.82
2018-05-23T00:57:48.527Z,99.91
2018-05-23T00:58:48.768Z,99.82
2018-05-23T00:59:48.973Z,99.72
2018-05-23T01:00:49.189Z,99.53
2018-05-23T01:01:49.423Z,99.53
2018-05-23T01:02:49.657Z,99.05
2018-05-23T01:03:49.890Z,98.86
2018-05-23T01:04:50.113Z,98.76
2018-05-23T01:05:50.347Z,98.76
2018-05-23T01:06:50.573Z,99.05
2018-05-23T01:07:50.797Z,98.76
2018-05-23T01:08:51.041Z,97.80
2018-05-23T01:09:51.261Z,98.57
2018-05-23T01:10:51.490Z,98.96
2018-05-23T01:11:51.724Z,98.86
2018-05-23T01:12:51.942Z,99.15
2018-05-23T01:13:52.222Z,98.96
2018-05-23T01:14:52.404Z,98.57
2018-05-23T01:15:52.632Z,99.05
2018-05-23T01:16:52.871Z,98.19
2018-05-23T01:17:53.092Z,98.76
2018-05-23T01:18:53.325Z,98.57
2018-05-23T01:19:53.554Z,98.86
2018-05-23T01:20:53.781Z,98.86
2018-05-23T01:21:54.093Z,98.76
2018-05-23T01:22:54.239Z,99.05
2018-05-23T01:23:54.468Z,99.34
2018-05-23T01:24:54.692Z,98.96
2018-05-23T01:25:54.923Z,99.24
2018-05-23T01:26:55.154Z,98.76
2018-05-23T01:27:55.382Z,98.67
2018-05-23T01:28:55.617Z,98.76
2018-05-23T01:29:55.849Z,98.76
2018-05-23T01:30:56.073Z,98.86
2018-05-23T01:31:56.307Z,98.96
2018-05-23T01:32:56.533Z,99.05
2018-05-23T01:33:56.769Z,98.57
2018-05-23T01:34:56.994Z,98.19
2018-05-23T01:35:57.222Z,97.80
2018-05-23T01:36:57.462Z,98.19
2018-05-23T01:37:57.689Z,98.10
2018-05-23T01:38:57.919Z,97.95
2018-05-23T01:39:58.139Z,96.99
2018-05-23T01:40:58.367Z,97.18
2018-05-23T01:41:58.598Z,97.09
2018-05-23T01:42:58.814Z,96.80
2018-05-23T01:43:59.054Z,96.80
2018-05-23T01:44:59.275Z,96.80
2018-05-23T01:45:59.504Z,96.70
2018-05-23T01:46:59.728Z,96.99
2018-05-23T01:47:59.960Z,97.09
2018-05-23T01:49:00.188Z,97.18
2018-05-23T01:50:00.416Z,97.23
2018-05-23T01:51:00.649Z,97.52
2018-05-23T01:52:00.879Z,97.61
2018-05-23T01:53:01.115Z,98.38
2018-05-23T01:54:01.344Z,98.10
2018-05-23T01:55:01.574Z,98.00
2018-05-23T01:56:01.811Z,99.15
2018-05-23T01:57:02.041Z,98.67
2018-05-23T01:58:02.262Z,99.24
2018-05-23T01:59:02.495Z,99.43
2018-05-23T02:00:02.723Z,99.63
2018-05-23T02:01:02.957Z,99.72
2018-05-23T02:02:03.183Z,99.63
2018-05-23T02:03:03.411Z,99.99
2018-05-23T02:04:03.647Z,99.99
2018-05-23T02:05:03.877Z,99.99
2018-05-23T02:06:04.108Z,99.99
2018-05-23T02:07:04.334Z,99.99
2018-05-23T02:08:04.568Z,99.99
2018-05-23T02:09:04.798Z,99.99
2018-05-23T02:10:05.028Z,99.99
2018-05-23T02:11:05.259Z,99.99
2018-05-23T02:12:05.494Z,99.99
2018-05-23T02:13:05.721Z,99.34
2018-05-23T02:14:05.950Z,99.63
2018-05-23T02:15:06.182Z,99.63
2018-05-23T02:16:06.407Z,99.43
2018-05-23T02:17:06.641Z,99.34
2018-05-23T02:18:06.869Z,98.76
2018-05-23T02:19:07.096Z,98.67
2018-05-23T02:20:07.328Z,98.67
2018-05-23T02:21:07.556Z,98.86
2018-05-23T02:22:07.786Z,98.96
2018-05-23T02:23:08.015Z,98.96
2018-05-23T02:24:08.251Z,98.86
2018-05-23T02:25:08.481Z,98.67
2018-05-23T02:26:08.711Z,99.15
2018-05-23T02:27:08.939Z,98.67
2018-05-23T02:28:09.178Z,98.47
2018-05-23T02:29:09.399Z,98.76
2018-05-23T02:30:09.631Z,98.86
2018-05-23T02:31:09.861Z,98.76
2018-05-23T02:32:10.086Z,98.86
2018-05-23T02:33:10.315Z,98.76
2018-05-23T02:34:10.545Z,98.86
2018-05-23T02:35:10.782Z,98.67
2018-05-23T02:36:11.000Z,99.05
2018-05-23T02:37:11.225Z,99.43
2018-05-23T02:38:11.458Z,98.96
2018-05-23T02:39:11.689Z,98.47
2018-05-23T02:40:11.915Z,98.86
2018-05-23T02:41:12.141Z,98.38
2018-05-23T02:42:12.373Z,98.47
2018-05-23T02:43:12.606Z,97.52
2018-05-23T02:44:12.834Z,98.00
2018-05-23T02:45:13.067Z,97.42
2018-05-23T02:46:13.296Z,97.85
2018-05-23T02:47:13.558Z,96.94
2018-05-23T02:48:13.757Z,97.23
2018-05-23T02:49:13.979Z,96.47
2018-05-23T02:50:14.209Z,96.75
2018-05-23T02:51:14.446Z,96.75
2018-05-23T02:52:14.681Z,96.66
2018-05-23T02:53:14.906Z,96.66
2018-05-23T02:54:15.142Z,96.56
2018-05-23T02:55:15.369Z,96.37
2018-05-23T02:56:15.608Z,96.94
2018-05-23T02:57:15.843Z,96.84
2018-05-23T02:58:16.068Z,96.56
2018-05-23T02:59:16.301Z,96.75
2018-05-23T03:00:16.541Z,97.04
2018-05-23T03:01:16.760Z,96.56
2018-05-23T03:02:16.989Z,96.75
2018-05-23T03:03:17.219Z,96.37
2018-05-23T03:04:17.450Z,96.08
2018-05-23T03:05:17.680Z,96.08
2018-05-23T03:06:17.911Z,96.32
2018-05-23T03:07:18.142Z,95.89
2018-05-23T03:08:18.379Z,95.79
2018-05-23T03:09:18.603Z,95.70
2018-05-23T03:10:18.834Z,95.41
2018-05-23T03:11:19.065Z,95.46
2018-05-23T03:12:19.295Z,94.93
2018-05-23T03:13:19.526Z,95.56
2018-05-23T03:14:19.757Z,94.40
2018-05-23T03:15:19.974Z,94.69
2018-05-23T03:16:20.197Z,94.59
2018-05-23T03:17:20.434Z,94.50
2018-05-23T03:18:20.664Z,94.69
2018-05-23T03:19:20.895Z,94.69
2018-05-23T03:20:21.142Z,94.31
2018-05-23T03:21:21.342Z,94.50
2018-05-23T03:22:21.574Z,94.40
2018-05-23T03:23:21.803Z,94.64
2018-05-23T03:24:22.035Z,94.69
2018-05-23T03:25:22.267Z,94.50
2018-05-23T03:26:22.499Z,94.40
2018-05-23T03:27:22.731Z,94.40
2018-05-23T03:28:22.962Z,94.50
2018-05-23T03:29:23.196Z,94.40
2018-05-23T03:30:23.432Z,94.40
2018-05-23T03:31:23.647Z,94.31
2018-05-23T03:32:23.873Z,94.50
2018-05-23T03:33:24.115Z,94.21
2018-05-23T03:34:24.345Z,94.31
2018-05-23T03:35:24.572Z,94.21
2018-05-23T03:36:24.803Z,94.69
2018-05-23T03:37:25.031Z,94.69
2018-05-23T03:38:25.263Z,94.59
2018-05-23T03:39:25.493Z,94.69
2018-05-23T03:40:25.724Z,94.02
2018-05-23T03:41:25.956Z,93.73
2018-05-23T03:42:26.184Z,94.69
2018-05-23T03:43:26.415Z,94.40
2018-05-23T03:44:26.647Z,94.40
2018-05-23T03:45:26.882Z,94.50
2018-05-23T03:46:27.124Z,93.93
2018-05-23T03:47:27.344Z,94.02
2018-05-23T03:48:27.572Z,94.02
2018-05-23T03:49:27.803Z,93.93
2018-05-23T03:50:28.041Z,93.44
2018-05-23T03:51:28.264Z,93.44
2018-05-23T03:52:28.496Z,92.77
2018-05-23T03:53:28.730Z,92.92
2018-05-23T03:54:28.961Z,92.97
2018-05-23T03:55:29.198Z,92.01
2018-05-23T03:56:29.436Z,92.20
2018-05-23T03:57:29.656Z,91.82
2018-05-23T03:58:29.877Z,91.63
2018-05-23T03:59:30.111Z,91.72
2018-05-23T04:00:30.338Z,91.63
2018-05-23T04:01:30.566Z,92.01
2018-05-23T04:02:30.814Z,91.72
2018-05-23T04:03:31.038Z,91.63
2018-05-23T04:04:31.265Z,91.72
2018-05-23T04:05:31.497Z,92.06
2018-05-23T04:06:31.733Z,92.63
2018-05-23T04:07:31.961Z,92.35
2018-05-23T04:08:32.179Z,92.20
2018-05-23T04:09:32.407Z,92.39
2018-05-23T04:10:32.638Z,92.30
2018-05-23T04:11:32.870Z,91.63
2018-05-23T04:12:33.101Z,91.82
2018-05-23T04:13:33.338Z,91.34
2018-05-23T04:14:33.556Z,91.63
2018-05-23T04:15:33.789Z,91.43
2018-05-23T04:16:34.024Z,90.86
2018-05-23T04:17:34.251Z,91.14
2018-05-23T04:18:34.494Z,90.90
2018-05-23T04:19:34.713Z,90.57
2018-05-23T04:20:34.933Z,90.76
2018-05-23T04:21:35.166Z,91.24
2018-05-23T04:22:35.398Z,90.90
2018-05-23T04:23:35.629Z,91.82
2018-05-23T04:24:35.860Z,92.30
2018-05-23T04:25:36.102Z,92.97
2018-05-23T04:26:36.306Z,92.68
2018-05-23T04:27:36.538Z,92.97
2018-05-23T04:28:36.765Z,93.44
2018-05-23T04:29:36.996Z,93.26
2018-05-23T04:30:37.236Z,92.97
2018-05-23T04:31:37.469Z,92.87
2018-05-23T04:32:37.678Z,93.16
2018-05-23T04:33:37.935Z,92.77
2018-05-23T04:34:38.132Z,92.01
2018-05-23T04:35:38.373Z,91.19
2018-05-23T04:36:38.620Z,90.81
2018-05-23T04:37:38.833Z,90.42
2018-05-23T04:38:39.064Z,90.04
2018-05-23T04:39:39.299Z,89.65
2018-05-23T04:40:39.534Z,90.23
2018-05-23T04:41:39.765Z,88.60
2018-05-23T04:42:40.000Z,89.18
2018-05-23T04:43:40.238Z,89.27
2018-05-23T04:44:40.482Z,88.41
2018-05-23T04:45:40.693Z,88.60
2018-05-23T04:46:40.923Z,88.17
2018-05-23T04:47:41.147Z,88.65
2018-05-23T04:48:41.394Z,88.55
2018-05-23T04:49:41.621Z,87.59
2018-05-23T04:50:41.851Z,87.11
2018-05-23T04:51:42.097Z,87.68
2018-05-23T04:52:42.312Z,87.59
2018-05-23T04:53:42.544Z,87.30
2018-05-23T04:54:42.772Z,87.88
2018-05-23T04:55:42.990Z,87.98
2018-05-23T04:56:43.226Z,87.21
2018-05-23T04:57:43.456Z,87.30
2018-05-23T04:58:43.690Z,87.01
2018-05-23T04:59:43.920Z,86.92
2018-05-23T05:00:44.154Z,86.82
2018-05-23T05:01:44.381Z,86.72
2018-05-23T05:02:44.616Z,86.63
2018-05-23T05:03:44.850Z,85.81
2018-05-23T05:04:45.075Z,86.77
2018-05-23T05:05:45.305Z,85.91
2018-05-23T05:06:45.538Z,86.10
2018-05-23T05:07:45.769Z,86.19
2018-05-23T05:08:46.003Z,85.14
2018-05-23T05:09:46.231Z,85.42
2018-05-23T05:10:46.459Z,85.71
2018-05-23T05:11:46.689Z,85.57
2018-05-23T05:12:46.928Z,84.66
2018-05-23T05:13:47.236Z,83.03
2018-05-23T05:14:47.387Z,83.54
2018-05-23T05:15:47.619Z,83.07
2018-05-23T05:16:47.850Z,83.36
2018-05-23T05:17:48.095Z,83.16
2018-05-23T05:18:48.313Z,82.40
2018-05-23T05:19:48.547Z,80.63
2018-05-23T05:20:48.782Z,80.82
2018-05-23T05:21:49.013Z,80.91
2018-05-23T05:22:49.242Z,80.34
2018-05-23T05:23:49.471Z,80.82
2018-05-23T05:24:49.778Z,80.24
2018-05-23T05:25:49.936Z,80.73
2018-05-23T05:26:50.167Z,79.86
2018-05-23T05:27:50.404Z,81.40
2018-05-23T05:28:50.630Z,81.40
2018-05-23T05:29:50.864Z,79.86
2018-05-23T05:30:51.096Z,79.53
2018-05-23T05:31:51.417Z,79.63
2018-05-23T05:32:51.562Z,79.63
2018-05-23T05:33:51.799Z,79.47
2018-05-23T05:34:52.028Z,79.86
2018-05-23T05:35:52.265Z,80.34
2018-05-23T05:36:52.492Z,79.67
2018-05-23T05:37:52.726Z,79.38
2018-05-23T05:38:52.957Z,79.38
2018-05-23T05:39:53.178Z,78.80
2018-05-23T05:40:53.407Z,78.80
2018-05-23T05:41:53.642Z,78.61
2018-05-23T05:42:53.893Z,78.47
2018-05-23T05:43:54.104Z,79.28
2018-05-23T05:44:54.343Z,80.43
2018-05-23T05:45:54.562Z,79.96
2018-05-23T05:46:54.864Z,79.57
2018-05-23T05:47:55.025Z,79.67
2018-05-23T05:48:55.247Z,79.38
2018-05-23T05:49:55.500Z,79.22
2018-05-23T05:50:55.741Z,79.47
2018-05-23T05:51:55.954Z,79.42
2018-05-23T05:52:56.193Z,76.98
2018-05-23T05:53:56.413Z,77.17
2018-05-23T05:54:56.644Z,76.12
2018-05-23T05:55:56.871Z,76.59
2018-05-23T05:56:57.106Z,76.98
2018-05-23T05:57:57.336Z,76.31
2018-05-23T05:58:57.569Z,76.59
2018-05-23T05:59:57.802Z,77.26
2018-05-23T06:00:58.032Z,77.36
2018-05-23T06:01:58.306Z,76.75
2018-05-23T06:02:58.504Z,77.17
2018-05-23T06:03:58.738Z,77.36
2018-05-23T06:04:58.967Z,75.70
2018-05-23T06:05:59.206Z,76.27
2018-05-23T06:06:59.436Z,76.40
2018-05-23T06:07:59.667Z,75.02
2018-05-23T06:08:59.897Z,75.45
2018-05-23T06:10:00.172Z,75.35
2018-05-23T06:11:00.362Z,74.58
2018-05-23T06:12:00.593Z,74.58
2018-05-23T06:13:00.828Z,76.12
2018-05-23T06:14:01.053Z,76.12
2018-05-23T06:15:01.285Z,75.06
2018-05-23T06:16:01.516Z,74.68
2018-05-23T06:17:01.744Z,75.06
2018-05-23T06:18:01.969Z,74.62
2018-05-23T06:19:02.200Z,73.72
2018-05-23T06:20:02.430Z,73.08
2018-05-23T06:21:02.651Z,73.27
2018-05-23T06:22:02.889Z,72.79
2018-05-23T06:23:03.119Z,72.12
2018-05-23T06:24:03.347Z,71.83
2018-05-23T06:25:03.586Z,72.06
2018-05-23T06:26:03.813Z,71.96
2018-05-23T06:27:04.041Z,70.52
2018-05-23T06:28:04.270Z,69.95
2018-05-23T06:29:04.504Z,71.39
2018-05-23T06:30:04.735Z,70.33
2018-05-23T06:31:04.974Z,69.37
2018-05-23T06:32:05.205Z,68.89
2018-05-23T06:33:05.437Z,69.27
2018-05-23T06:34:05.670Z,69.02
2018-05-23T06:35:05.897Z,69.31
2018-05-23T06:36:06.133Z,69.34
2018-05-23T06:37:06.367Z,67.90
2018-05-23T06:38:06.603Z,67.90
2018-05-23T06:39:06.832Z,67.03
2018-05-23T06:40:07.063Z,65.78
2018-05-23T06:41:07.296Z,65.97
2018-05-23T06:42:07.528Z,65.97
2018-05-23T06:43:07.761Z,66.46
2018-05-23T06:44:08.003Z,66.17
2018-05-23T06:45:08.225Z,66.94
2018-05-23T06:46:08.456Z,66.07
2018-05-23T06:47:08.690Z,64.82
2018-05-23T06:48:08.922Z,64.92
2018-05-23T06:49:09.155Z,66.27
2018-05-23T06:50:09.430Z,66.30
2018-05-23T06:51:09.692Z,65.59
2018-05-23T06:52:09.861Z,65.78
2018-05-23T06:53:10.105Z,65.78
2018-05-23T06:54:10.322Z,65.78
2018-05-23T06:55:10.556Z,65.11
2018-05-23T06:56:10.791Z,65.78
2018-05-23T06:57:11.025Z,65.11
2018-05-23T06:58:11.258Z,64.76
2018-05-23T06:59:11.487Z,65.01
2018-05-23T07:00:11.722Z,64.34
2018-05-23T07:01:11.954Z,63.95
2018-05-23T07:02:12.187Z,64.73
2018-05-23T07:03:12.432Z,64.92
2018-05-23T07:04:12.653Z,65.59
2018-05-23T07:05:12.887Z,64.82
2018-05-23T07:06:13.118Z,65.20
2018-05-23T07:07:13.352Z,64.34
2018-05-23T07:08:13.587Z,64.15
2018-05-23T07:09:13.821Z,64.47
2018-05-23T07:10:14.058Z,64.86
2018-05-23T07:11:14.340Z,66.01
2018-05-23T07:12:14.526Z,64.28
2018-05-23T07:13:14.763Z,64.15
2018-05-23T07:14:14.995Z,64.92
2018-05-23T07:15:15.231Z,65.01
2018-05-23T07:16:15.462Z,65.24
2018-05-23T07:17:15.696Z,64.76
2018-05-23T07:18:15.929Z,65.53
2018-05-23T07:19:16.169Z,63.79
2018-05-23T07:20:16.402Z,64.34
2018-05-23T07:21:16.632Z,65.24
2018-05-23T07:22:16.868Z,65.63
2018-05-23T07:23:17.112Z,65.24
2018-05-23T07:24:17.342Z,66.01
2018-05-23T07:25:17.583Z,65.24
2018-05-23T07:26:17.811Z,65.72
2018-05-23T07:27:18.043Z,66.10
2018-05-23T07:28:18.278Z,66.97
2018-05-23T07:29:18.510Z,67.07
2018-05-23T07:30:18.743Z,67.39
2018-05-23T07:31:18.970Z,65.56
2018-05-23T07:32:19.203Z,66.33
2018-05-23T07:33:19.441Z,66.42
2018-05-23T07:34:19.667Z,66.42
2018-05-23T07:35:19.906Z,65.11
2018-05-23T07:36:20.148Z,63.95
2018-05-23T07:37:20.379Z,66.65
2018-05-23T07:38:20.702Z,65.33
2018-05-23T07:39:20.851Z,65.40
2018-05-23T07:40:21.083Z,64.56
2018-05-23T07:41:21.315Z,65.43
2018-05-23T07:42:21.549Z,63.60
2018-05-23T07:43:21.792Z,63.89
2018-05-23T07:44:22.016Z,64.18
2018-05-23T07:45:22.252Z,64.66
2018-05-23T07:46:22.481Z,64.28
2018-05-23T07:47:22.717Z,63.21
2018-05-23T07:48:22.949Z,63.79
2018-05-23T07:49:23.181Z,63.12
2018-05-23T07:50:23.418Z,64.37
2018-05-23T07:51:23.657Z,63.50
2018-05-23T07:52:23.915Z,64.47
2018-05-23T07:53:24.128Z,64.28
2018-05-23T07:54:24.360Z,64.18
2018-05-23T07:55:24.591Z,64.37
2018-05-23T07:56:24.830Z,64.28
2018-05-23T07:57:25.068Z,64.47
2018-05-23T07:58:25.305Z,64.37
2018-05-23T07:59:25.541Z,62.93
2018-05-23T08:00:25.768Z,63.02
2018-05-23T08:01:26.003Z,62.83
2018-05-23T08:02:26.238Z,62.25
2018-05-23T08:03:26.478Z,62.25
2018-05-23T08:04:26.712Z,62.54
2018-05-23T08:05:26.947Z,63.31
2018-05-23T08:06:27.175Z,64.37
2018-05-23T08:07:27.414Z,62.73
2018-05-23T08:08:27.646Z,63.70
2018-05-23T08:09:27.881Z,63.21
2018-05-23T08:10:28.117Z,64.08
2018-05-23T08:11:28.351Z,64.08
2018-05-23T08:12:28.587Z,63.02
2018-05-23T08:13:28.825Z,64.79
2018-05-23T08:14:29.058Z,63.15
2018-05-23T08:15:29.291Z,62.76
2018-05-23T08:16:29.529Z,62.76
2018-05-23T08:17:29.764Z,62.28
2018-05-23T08:18:29.997Z,61.61
2018-05-23T08:19:30.232Z,61.99
2018-05-23T08:20:30.463Z,61.32
2018-05-23T08:21:30.699Z,62.18
2018-05-23T08:22:30.934Z,62.48
2018-05-23T08:23:31.168Z,62.38
2018-05-23T08:24:31.427Z,62.28
2018-05-23T08:25:31.641Z,62.96
2018-05-23T08:26:31.875Z,62.57
2018-05-23T08:27:32.110Z,62.18
2018-05-23T08:28:32.348Z,62.76
2018-05-23T08:29:32.582Z,62.28
2018-05-23T08:30:32.817Z,62.09
2018-05-23T08:31:33.052Z,62.12
2018-05-23T08:32:33.285Z,61.93
2018-05-23T08:33:33.520Z,62.41
2018-05-23T08:34:33.755Z,61.35
2018-05-23T08:35:33.990Z,62.70
2018-05-23T08:36:34.222Z,61.28
2018-05-23T08:37:34.446Z,60.41
2018-05-23T08:38:34.684Z,60.96
2018-05-23T08:39:34.925Z,61.19
2018-05-23T08:40:35.164Z,61.19
2018-05-23T08:41:35.396Z,60.80
2018-05-23T08:42:35.635Z,59.96
2018-05-23T08:43:35.880Z,60.25
2018-05-23T08:44:36.106Z,60.35
2018-05-23T08:45:36.336Z,58.80
2018-05-23T08:46:36.570Z,58.42
2018-05-23T08:47:36.804Z,59.96
2018-05-23T08:48:37.040Z,60.06
2018-05-23T08:49:37.276Z,59.96
2018-05-23T08:50:37.493Z,59.58
2018-05-23T08:51:37.751Z,59.02
2018-05-23T08:52:37.986Z,58.83
2018-05-23T08:53:38.217Z,59.44
2018-05-23T08:54:38.461Z,58.06
2018-05-23T08:55:38.699Z,56.99
2018-05-23T08:56:38.924Z,57.67
2018-05-23T08:57:39.168Z,57.87
2018-05-23T08:58:39.397Z,59.92
2018-05-23T08:59:39.631Z,57.79
2018-05-23T09:00:39.863Z,57.51
2018-05-23T09:01:40.101Z,57.19
2018-05-23T09:02:40.337Z,57.57
2018-05-23T09:03:40.576Z,59.12
2018-05-23T09:04:40.864Z,58.35
2018-05-23T09:05:41.045Z,58.93
2018-05-23T09:06:41.281Z,60.18
2018-05-23T09:07:41.517Z,58.35
2018-05-23T09:08:41.760Z,59.12
2018-05-23T09:09:41.989Z,59.22
2018-05-23T09:10:42.231Z,58.73
2018-05-23T09:11:42.460Z,58.22
2018-05-23T09:12:42.702Z,58.90
2018-05-23T09:13:42.934Z,59.67
2018-05-23T09:14:43.172Z,60.54
2018-05-23T09:15:43.398Z,59.38
2018-05-23T09:16:43.633Z,60.47
2018-05-23T09:17:43.893Z,58.73
2018-05-23T09:18:44.114Z,59.22
2018-05-23T09:19:44.340Z,60.50
2018-05-23T09:20:44.576Z,58.95
2018-05-23T09:21:44.809Z,58.18
2018-05-23T09:22:45.057Z,57.79
2018-05-23T09:23:45.293Z,58.76
2018-05-23T09:24:45.515Z,58.95
2018-05-23T09:25:45.754Z,58.37
2018-05-23T09:26:45.982Z,60.21
2018-05-23T09:27:46.217Z,58.89
2018-05-23T09:28:46.455Z,57.89
2018-05-23T09:29:46.692Z,58.67
2018-05-23T09:30:46.928Z,58.89
2018-05-23T09:31:47.166Z,59.08
2018-05-23T09:32:47.399Z,59.66
2018-05-23T09:33:47.632Z,57.08
2018-05-23T09:34:47.870Z,56.76
2018-05-23T09:35:48.115Z,56.86
2018-05-23T09:36:48.333Z,56.86
2018-05-23T09:37:48.576Z,57.15
2018-05-23T09:38:48.817Z,58.02
2018-05-23T09:39:49.066Z,56.76
2018-05-23T09:40:49.287Z,55.70
2018-05-23T09:41:49.523Z,55.70
2018-05-23T09:42:49.759Z,56.95
2018-05-23T09:43:50.004Z,56.67
2018-05-23T09:44:50.231Z,56.67
2018-05-23T09:45:50.477Z,55.99
2018-05-23T09:46:50.697Z,56.37
2018-05-23T09:47:50.934Z,56.37
2018-05-23T09:48:51.169Z,56.18
2018-05-23T09:49:51.401Z,55.02
2018-05-23T09:50:51.638Z,54.61
2018-05-23T09:51:51.876Z,54.90
2018-05-23T09:52:52.125Z,54.99
2018-05-23T09:53:52.343Z,53.45
2018-05-23T09:54:52.580Z,53.55
2018-05-23T09:55:52.816Z,53.45
2018-05-23T09:56:53.050Z,54.41
2018-05-23T09:57:53.288Z,53.35
2018-05-23T09:58:53.537Z,54.32
2018-05-23T09:59:53.761Z,54.53
2018-05-23T10:00:54.001Z,53.86
2018-05-23T10:01:54.235Z,54.44
2018-05-23T10:02:54.470Z,53.86
2018-05-23T10:03:54.702Z,53.67
2018-05-23T10:04:54.942Z,52.80
2018-05-23T10:05:55.175Z,55.11
2018-05-23T10:06:55.411Z,53.28
2018-05-23T10:07:55.647Z,54.73
2018-05-23T10:08:55.887Z,53.86
2018-05-23T10:09:56.119Z,54.73
2018-05-23T10:10:56.363Z,54.63
2018-05-23T10:11:56.599Z,53.77
2018-05-23T10:12:56.834Z,53.02
2018-05-23T10:13:57.067Z,53.99
2018-05-23T10:14:57.293Z,53.79
2018-05-23T10:15:57.527Z,52.53
2018-05-23T10:16:57.762Z,53.59
2018-05-23T10:17:57.996Z,53.89
2018-05-23T10:18:58.234Z,53.33
2018-05-23T10:19:58.477Z,53.91
2018-05-23T10:20:58.695Z,54.11
2018-05-23T10:21:58.936Z,53.72
2018-05-23T10:22:59.176Z,55.24
2018-05-23T10:23:59.405Z,54.39
2018-05-23T10:24:59.640Z,52.56
2018-05-23T10:25:59.880Z,54.79
2018-05-23T10:27:00.111Z,53.65
2018-05-23T10:28:00.368Z,52.68
2018-05-23T10:29:00.591Z,52.29
2018-05-23T10:30:00.827Z,52.27
2018-05-23T10:31:01.060Z,53.14
2018-05-23T10:32:01.292Z,51.95
2018-05-23T10:33:01.525Z,52.24
2018-05-23T10:34:01.767Z,52.92
2018-05-23T10:35:02.006Z,52.34
2018-05-23T10:36:02.239Z,52.44
2018-05-23T10:37:02.482Z,52.02
2018-05-23T10:38:02.721Z,52.22
2018-05-23T10:39:03.018Z,52.82
2018-05-23T10:40:03.177Z,52.41
2018-05-23T10:41:03.434Z,52.12
2018-05-23T10:42:03.670Z,52.89
2018-05-23T10:43:03.905Z,52.89
2018-05-23T10:44:04.135Z,53.57
2018-05-23T10:45:04.375Z,52.89
2018-05-23T10:46:04.615Z,53.38
2018-05-23T10:47:04.854Z,53.57
2018-05-23T10:48:05.090Z,53.19
2018-05-23T10:49:05.326Z,53.19
2018-05-23T10:50:05.560Z,53.47
2018-05-23T10:51:05.798Z,53.77
2018-05-23T10:52:06.102Z,53.77
2018-05-23T10:53:06.270Z,53.69
2018-05-23T10:54:06.509Z,53.47
2018-05-23T10:55:06.754Z,53.09
2018-05-23T10:56:06.979Z,53.47
2018-05-23T10:57:07.288Z,53.28
2018-05-23T10:58:07.457Z,53.47
2018-05-23T10:59:07.704Z,53.89
2018-05-23T11:00:07.932Z,54.57
2018-05-23T11:01:08.164Z,53.11
2018-05-23T11:02:08.396Z,51.68
2018-05-23T11:03:08.640Z,52.36
2018-05-23T11:04:08.871Z,52.39
2018-05-23T11:05:09.115Z,50.84
2018-05-23T11:06:09.343Z,51.74
2018-05-23T11:07:09.563Z,49.99
2018-05-23T11:08:09.802Z,49.32
2018-05-23T11:09:10.035Z,48.25
2018-05-23T11:10:10.272Z,50.67
2018-05-23T11:11:10.515Z,49.80
2018-05-23T11:12:10.754Z,48.83
2018-05-23T11:13:10.987Z,48.83
2018-05-23T11:14:11.224Z,48.54
2018-05-23T11:15:11.519Z,49.02
2018-05-23T11:16:11.699Z,49.80
2018-05-23T11:17:11.936Z,49.41
2018-05-23T11:18:12.168Z,49.05
2018-05-23T11:19:12.407Z,48.54
2018-05-23T11:20:12.641Z,49.82
2018-05-23T11:21:12.882Z,50.21
2018-05-23T11:22:13.123Z,50.50
2018-05-23T11:23:13.360Z,48.47
2018-05-23T11:24:13.594Z,48.18
2018-05-23T11:25:13.835Z,47.69
2018-05-23T11:26:14.073Z,49.44
2018-05-23T11:27:14.309Z,48.27
2018-05-23T11:28:14.546Z,48.95
2018-05-23T11:29:14.789Z,48.49
2018-05-23T11:30:15.024Z,48.27
2018-05-23T11:31:15.266Z,48.08
2018-05-23T11:32:15.500Z,47.60
2018-05-23T11:33:15.736Z,47.40
2018-05-23T11:34:15.975Z,47.79
2018-05-23T11:35:16.211Z,47.09
2018-05-23T11:36:16.449Z,47.50
2018-05-23T11:37:16.687Z,46.22
2018-05-23T11:38:16.925Z,46.72
2018-05-23T11:39:17.161Z,44.96
2018-05-23T11:40:17.394Z,45.15
2018-05-23T11:41:17.652Z,45.34
2018-05-23T11:42:17.864Z,44.37
2018-05-23T11:43:18.104Z,44.27
2018-05-23T11:44:18.342Z,45.95
2018-05-23T11:45:18.581Z,45.17
2018-05-23T11:46:18.821Z,45.25
2018-05-23T11:47:19.056Z,44.27
2018-05-23T11:48:19.292Z,45.15
2018-05-23T11:49:19.530Z,44.47
2018-05-23T11:50:21.294Z,44.10
2018-05-23T11:51:20.028Z,44.40
2018-05-23T11:52:20.268Z,44.01
2018-05-23T11:53:20.512Z,43.62
2018-05-23T11:54:20.751Z,44.30
2018-05-23T11:55:20.987Z,44.42
2018-05-23T11:56:21.233Z,45.00
2018-05-23T11:57:21.473Z,45.29
2018-05-23T11:58:21.711Z,45.58
2018-05-23T11:59:21.946Z,42.57
2018-05-23T12:00:22.185Z,41.58
2018-05-23T12:01:22.420Z,41.39
2018-05-23T12:02:22.661Z,41.39
2018-05-23T12:03:22.897Z,41.78
2018-05-23T12:04:23.148Z,40.61
2018-05-23T12:05:23.392Z,41.68
2018-05-23T12:06:23.609Z,42.46
2018-05-23T12:07:23.848Z,41.49
2018-05-23T12:08:24.080Z,40.91
2018-05-23T12:09:24.314Z,41.37
2018-05-23T12:10:24.620Z,41.00
2018-05-23T12:11:24.791Z,41.17
2018-05-23T12:12:25.038Z,41.97
2018-05-23T12:13:25.283Z,42.17
2018-05-23T12:14:25.509Z,42.75
2018-05-23T12:15:25.748Z,42.85
2018-05-23T12:16:25.989Z,40.61
2018-05-23T12:17:26.229Z,41.00
2018-05-23T12:18:26.470Z,40.13
2018-05-23T12:19:26.705Z,40.92
2018-05-23T12:20:26.944Z,40.92
2018-05-23T12:21:27.179Z,39.57
2018-05-23T12:22:27.410Z,39.28
2018-05-23T12:23:27.648Z,39.76
2018-05-23T12:24:27.888Z,40.34
2018-05-23T12:25:28.125Z,40.73
2018-05-23T12:26:28.368Z,39.95
2018-05-23T12:27:28.599Z,38.50
2018-05-23T12:28:28.838Z,38.50
2018-05-23T12:29:29.074Z,37.51
2018-05-23T12:30:29.314Z,38.89
2018-05-23T12:31:29.551Z,38.12
2018-05-23T12:32:29.790Z,40.03
2018-05-23T12:33:30.054Z,41.49
2018-05-23T12:34:30.298Z,41.97
2018-05-23T12:35:30.541Z,42.85
2018-05-23T12:36:30.767Z,43.04
2018-05-23T12:37:31.007Z,44.10
2018-05-23T12:38:31.240Z,42.94
2018-05-23T12:39:31.476Z,43.13
2018-05-23T12:40:31.709Z,43.04
2018-05-23T12:41:31.955Z,42.86
2018-05-23T12:42:32.183Z,42.94
2018-05-23T12:43:32.423Z,43.13
2018-05-23T12:44:32.656Z,43.82
2018-05-23T12:45:32.897Z,44.13
2018-05-23T12:46:33.135Z,44.61
2018-05-23T12:47:33.378Z,43.26
2018-05-23T12:48:33.602Z,42.57
2018-05-23T12:49:33.856Z,42.48
2018-05-23T12:50:34.097Z,42.48
2018-05-23T12:51:34.323Z,43.35
2018-05-23T12:52:34.561Z,42.67
2018-05-23T12:53:34.800Z,42.48
2018-05-23T12:54:35.041Z,42.19
2018-05-23T12:55:35.274Z,43.26